Terminal Aerodrome Forecast
Issued by NWS

Home | Current Version | Previous Version | Text Only | Print | Product List | Glossary On
Versions: 1 2 3 4 5 6 7 8 9 10 11 12 13
000
FTUS44 KEPZ 022320
TAFDMN
TAF
KDMN 022320Z 0300/0324 20011KT P6SM FEW050 SCT090 SCT220
     FM030300 05007KT P6SM SCT050 BKN090 BKN200
     FM030600 06010G20KT P6SM VCSH FEW030 BKN050 OVC090
     FM030800 06012G23KT P6SM -SHRA SCT030 OVC080
     FM031200 05015G27KT 5SM -RA SCT020 BKN030 OVC060
     FM031800 05015G25KT 3SM -SHRA FEW010 BKN025 OVC040=

USA.gov is the U.S. government's official web portal to all federal, state and local government web resources and services.